Time;durP1;ratioP1;P1;durP2;ratioP2;P2;SDS_P1;SDS_P2;PMS_P1;PMS_P2;Temp;Humidity;BMP_temperature;BMP_pressure;BME280_temperature;BME280_humidity;BME280_pressure;Samples;Min_cycle;Max_cycle;Signal;HPM_P1;HPM_P2
2022/09/25 00:01:43;;;;;;;17.60;16.00;;;;;;;;;;4991333;28;20448;-78
2022/09/25 00:04:10;;;;;;;16.87;15.37;;;;;;;;;;4991554;28;20944;-78
2022/09/25 00:06:37;;;;;;;16.70;15.20;;;;;;;;;;4992350;28;20932;-77
2022/09/25 00:09:04;;;;;;;17.10;15.60;;;;;;;;;;4991436;28;20946;-78
2022/09/25 00:11:33;;;;;;;17.27;15.67;;;;;;;;;;4992370;28;20440;-77
2022/09/25 00:14:02;;;;;;;16.33;14.90;;;;;;;;;;4992609;28;20514;-77
2022/09/25 00:16:30;;;;;;;17.30;15.70;;;;;;;;;;4990612;28;20522;-78
2022/09/25 00:21:43;;;;;;;16.43;14.73;;;;;;;;;;4990451;28;20427;-78
2022/09/25 00:24:11;;;;;;;18.57;16.63;;;;;;;;;;4990045;28;20452;-77
2022/09/25 00:26:39;;;;;;;17.20;15.60;;;;;;;;;;4990318;28;20902;-78
2022/09/25 00:29:09;;;;;;;17.77;16.07;;;;;;;;;;4990724;28;20595;-77
2022/09/25 00:31:36;;;;;;;16.17;14.70;;;;;;;;;;4990737;28;20481;-78
2022/09/25 00:34:05;;;;;;;17.00;15.50;;;;;;;;;;4990476;28;20448;-77
2022/09/25 00:36:32;;;;;;;16.47;14.97;;;;;;;;;;4990880;28;20800;-77
2022/09/25 00:38:59;;;;;;;17.00;15.50;;;;;;;;;;4990636;28;20967;-78
2022/09/25 00:41:28;;;;;;;17.73;15.93;;;;;;;;;;4991012;28;20514;-77
2022/09/25 00:43:57;;;;;;;16.87;15.27;;;;;;;;;;4990710;28;21080;-77
2022/09/25 00:46:28;;;;;;;15.60;14.30;;;;;;;;;;4990419;28;20711;-77
2022/09/25 00:48:56;;;;;;;18.37;14.43;;;;;;;;;;4990456;28;20469;-78
2022/09/25 00:51:28;;;;;;;16.57;14.87;;;;;;;;;;4990440;28;20979;-78
2022/09/25 00:53:56;;;;;;;16.33;14.83;;;;;;;;;;4990531;28;20473;-77
2022/09/25 00:56:23;;;;;;;16.87;15.37;;;;;;;;;;4990718;28;20460;-78
2022/09/25 00:58:50;;;;;;;17.10;15.50;;;;;;;;;;4990896;28;20476;-78
2022/09/25 01:01:17;;;;;;;17.80;16.10;;;;;;;;;;4990423;28;20558;-77
2022/09/25 01:03:46;;;;;;;18.63;16.77;;;;;;;;;;4990032;28;20452;-78
2022/09/25 01:06:13;;;;;;;18.90;16.90;;;;;;;;;;4990441;28;21016;-77
2022/09/25 01:08:40;;;;;;;17.60;16.00;;;;;;;;;;4990497;28;20526;-77
2022/09/25 01:11:07;;;;;;;18.63;17.03;;;;;;;;;;4990753;28;20472;-78
2022/09/25 01:13:34;;;;;;;17.87;16.27;;;;;;;;;;4990472;28;20440;-78
2022/09/25 01:16:07;;;;;;;18.40;16.37;;;;;;;;;;4990526;28;20452;-77
2022/09/25 01:18:40;;;;;;;18.00;16.30;;;;;;;;;;4990664;28;21226;-77
2022/09/25 01:21:16;;;;;;;18.00;16.30;;;;;;;;;;4991847;28;20465;-77
2022/09/25 01:24:05;;;;;;;17.83;16.10;;;;;;;;;;4991238;28;20932;-77
2022/09/25 01:26:44;;;;;;;17.27;15.70;;;;;;;;;;4986351;28;20448;-78
2022/09/25 01:29:17;;;;;;;17.50;15.90;;;;;;;;;;4995668;28;20467;-77
2022/09/25 01:31:47;;;;;;;18.73;17.00;;;;;;;;;;4995221;28;20947;-78
2022/09/25 01:34:18;;;;;;;18.33;16.63;;;;;;;;;;4994290;28;20443;-77
2022/09/25 01:36:47;;;;;;;18.90;17.00;;;;;;;;;;4992841;28;20452;-77
2022/09/25 01:39:19;;;;;;;18.97;17.27;;;;;;;;;;4994250;28;20990;-77
2022/09/25 01:41:50;;;;;;;17.17;15.60;;;;;;;;;;4993859;28;20480;-78
2022/09/25 01:44:22;;;;;;;17.03;15.33;;;;;;;;;;4993238;28;21006;-78
2022/09/25 01:46:51;;;;;;;16.43;14.93;;;;;;;;;;4994731;28;20445;-77
2022/09/25 01:49:21;;;;;;;16.10;14.60;;;;;;;;;;4994047;28;20487;-77
2022/09/25 01:51:50;;;;;;;16.00;14.60;;;;;;;;;;4993841;28;20498;-77
2022/09/25 01:54:19;;;;;;;17.13;15.50;;;;;;;;;;4992819;28;20499;-77
2022/09/25 01:56:50;;;;;;;16.07;14.33;;;;;;;;;;4993362;28;20456;-79
2022/09/25 01:59:21;;;;;;;11.30;10.30;;;;;;;;;;4993883;28;20515;-78
2022/09/25 02:01:49;;;;;;;12.70;11.53;;;;;;;;;;4993072;28;20996;-78
2022/09/25 02:04:18;;;;;;;11.37;10.40;;;;;;;;;;4993327;28;20451;-78
2022/09/25 02:06:47;;;;;;;11.67;10.50;;;;;;;;;;4993188;28;20495;-77
2022/09/25 02:09:16;;;;;;;11.80;10.80;;;;;;;;;;4992450;28;20472;-77
2022/09/25 02:11:46;;;;;;;13.47;12.17;;;;;;;;;;4993039;28;20467;-78
2022/09/25 02:14:16;;;;;;;12.53;11.40;;;;;;;;;;4992821;28;20534;-77
2022/09/25 02:16:44;;;;;;;11.63;10.63;;;;;;;;;;4993316;28;20463;-77
2022/09/25 02:22:04;;;;;;;12.37;11.27;;;;;;;;;;4992744;28;20857;-77
2022/09/25 02:24:34;;;;;;;14.77;13.37;;;;;;;;;;4992446;28;20483;-78
2022/09/25 02:27:01;;;;;;;15.90;14.50;;;;;;;;;;4993014;28;20441;-77
2022/09/25 02:29:29;;;;;;;15.90;14.40;;;;;;;;;;4989739;28;20471;-77
2022/09/25 02:31:59;;;;;;;16.03;14.53;;;;;;;;;;4992822;28;20441;-77
2022/09/25 02:34:26;;;;;;;14.93;13.43;;;;;;;;;;4992266;28;20861;-77
2022/09/25 02:36:54;;;;;;;16.27;14.77;;;;;;;;;;4992656;28;20475;-77
2022/09/25 02:39:22;;;;;;;16.10;14.43;;;;;;;;;;4992494;28;20475;-78
2022/09/25 02:41:55;;;;;;;17.27;15.63;;;;;;;;;;4992442;28;20484;-77
2022/09/25 02:44:30;;;;;;;17.00;15.30;;;;;;;;;;4991579;28;20453;-77
2022/09/25 02:47:04;;;;;;;18.90;17.20;;;;;;;;;;4993013;28;20535;-78
2022/09/25 02:49:39;;;;;;;18.57;16.83;;;;;;;;;;4993419;28;20474;-77
2022/09/25 02:52:07;;;;;;;19.80;17.87;;;;;;;;;;4994961;28;20436;-78
2022/09/25 02:54:38;;;;;;;20.63;18.67;;;;;;;;;;4994403;28;20456;-77
2022/09/25 02:57:09;;;;;;;24.33;22.00;;;;;;;;;;4993854;28;20535;-78
2022/09/25 02:59:38;;;;;;;24.33;20.97;;;;;;;;;;4993058;28;20476;-78
2022/09/25 03:02:07;;;;;;;23.03;20.83;;;;;;;;;;4993093;28;20480;-78
2022/09/25 03:04:36;;;;;;;24.30;21.90;;;;;;;;;;4991820;28;20562;-78
2022/09/25 03:07:04;;;;;;;26.33;23.90;;;;;;;;;;4991939;28;20445;-77
2022/09/25 03:09:34;;;;;;;24.57;22.30;;;;;;;;;;4994203;28;20455;-77
2022/09/25 03:12:02;;;;;;;24.50;22.10;;;;;;;;;;4992411;28;20436;-77
2022/09/25 03:14:29;;;;;;;25.77;23.13;;;;;;;;;;4992323;28;20487;-78
2022/09/25 03:16:56;;;;;;;24.90;22.60;;;;;;;;;;4993106;28;20561;-77
2022/09/25 03:19:26;;;;;;;24.43;22.07;;;;;;;;;;4992187;28;20477;-78
2022/09/25 03:21:53;;;;;;;26.10;23.30;;;;;;;;;;4991566;28;20480;-77
2022/09/25 03:24:21;;;;;;;24.10;21.80;;;;;;;;;;4991491;28;20471;-77
2022/09/25 03:26:48;;;;;;;26.57;23.70;;;;;;;;;;4992093;28;20440;-78
2022/09/25 03:29:16;;;;;;;26.27;23.77;;;;;;;;;;4991330;28;20755;-77
2022/09/25 03:31:44;;;;;;;25.60;22.93;;;;;;;;;;4987434;28;20797;-77
2022/09/25 03:34:11;;;;;;;26.97;24.07;;;;;;;;;;4988579;28;20448;-77
2022/09/25 03:36:40;;;;;;;25.40;22.97;;;;;;;;;;4991530;28;20940;-78
2022/09/25 03:39:09;;;;;;;26.67;23.97;;;;;;;;;;4992340;28;20468;-77
2022/09/25 03:41:36;;;;;;;26.23;23.63;;;;;;;;;;4991957;28;20606;-78
2022/09/25 03:44:04;;;;;;;26.97;24.27;;;;;;;;;;4991489;28;20943;-79
2022/09/25 03:46:32;;;;;;;26.00;23.57;;;;;;;;;;4991848;28;20818;-77
2022/09/25 03:48:59;;;;;;;26.37;23.73;;;;;;;;;;4995643;28;20472;-78
2022/09/25 03:51:27;;;;;;;24.43;22.10;;;;;;;;;;4993346;28;20543;-77
2022/09/25 03:53:56;;;;;;;24.40;22.00;;;;;;;;;;4993791;28;20455;-77
2022/09/25 03:56:24;;;;;;;26.07;23.50;;;;;;;;;;4994339;28;20460;-77
2022/09/25 03:58:53;;;;;;;25.83;23.23;;;;;;;;;;4994953;28;20464;-77
2022/09/25 04:01:20;;;;;;;23.50;21.13;;;;;;;;;;4993540;28;20556;-77
2022/09/25 04:03:47;;;;;;;25.23;22.70;;;;;;;;;;4991645;28;20488;-77
2022/09/25 04:06:17;;;;;;;27.90;24.20;;;;;;;;;;4992109;28;20444;-78
2022/09/25 04:08:44;;;;;;;23.93;21.50;;;;;;;;;;4991274;28;20531;-77
2022/09/25 04:11:13;;;;;;;24.33;21.80;;;;;;;;;;4991018;28;20452;-78
2022/09/25 04:13:40;;;;;;;24.97;22.47;;;;;;;;;;4985376;28;20908;-77
2022/09/25 04:16:08;;;;;;;25.57;22.87;;;;;;;;;;4991411;28;20565;-78
2022/09/25 04:18:35;;;;;;;25.03;22.53;;;;;;;;;;4982077;28;20579;-77
2022/09/25 04:21:02;;;;;;;25.30;22.73;;;;;;;;;;4991319;28;20472;-77
2022/09/25 04:23:30;;;;;;;25.33;22.30;;;;;;;;;;4990643;28;20535;-77
2022/09/25 04:25:57;;;;;;;24.37;21.80;;;;;;;;;;4991317;28;20547;-76
2022/09/25 04:28:26;;;;;;;24.20;21.70;;;;;;;;;;4988589;28;20560;-77
2022/09/25 04:30:53;;;;;;;24.33;21.83;;;;;;;;;;4988799;28;20440;-79
2022/09/25 04:36:05;;;;;;;25.73;22.97;;;;;;;;;;4991026;28;20400;-77
2022/09/25 04:38:32;;;;;;;23.20;20.93;;;;;;;;;;4990928;28;20470;-77
2022/09/25 04:41:00;;;;;;;23.43;20.97;;;;;;;;;;4991075;28;20480;-77
2022/09/25 04:43:29;;;;;;;24.33;21.77;;;;;;;;;;4990675;28;20510;-77
2022/09/25 04:45:56;;;;;;;25.23;22.53;;;;;;;;;;4988862;28;20453;-77
2022/09/25 04:48:23;;;;;;;24.40;21.80;;;;;;;;;;4985921;28;20468;-76
2022/09/25 04:50:51;;;;;;;24.67;21.70;;;;;;;;;;4990592;28;21266;-77
2022/09/25 04:53:18;;;;;;;23.67;21.17;;;;;;;;;;4990298;28;20448;-78
2022/09/25 04:55:46;;;;;;;24.63;22.00;;;;;;;;;;4990917;28;21241;-78
2022/09/25 04:58:13;;;;;;;24.00;21.40;;;;;;;;;;4990971;28;20491;-77
2022/09/25 05:00:42;;;;;;;23.90;21.33;;;;;;;;;;4990862;28;20460;-78
2022/09/25 05:03:09;;;;;;;24.70;22.10;;;;;;;;;;4994197;28;20530;-78
2022/09/25 05:05:36;;;;;;;25.30;22.43;;;;;;;;;;4994874;28;20451;-78
2022/09/25 05:08:04;;;;;;;24.50;21.90;;;;;;;;;;4990449;28;20462;-77
2022/09/25 05:10:33;;;;;;;23.13;20.73;;;;;;;;;;4994185;28;20441;-77
2022/09/25 05:13:01;;;;;;;24.23;21.40;;;;;;;;;;4993782;28;20949;-78
2022/09/25 05:15:30;;;;;;;22.77;20.37;;;;;;;;;;5000055;28;20518;-78
2022/09/25 05:18:01;;;;;;;32.33;29.03;;;;;;;;;;5017877;28;20536;-77
2022/09/25 05:20:28;;;;;;;27.70;22.80;;;;;;;;;;5019035;28;20428;-76
2022/09/25 05:22:56;;;;;;;24.40;21.80;;;;;;;;;;5018915;28;20491;-77
2022/09/25 05:25:24;;;;;;;23.53;20.90;;;;;;;;;;5019698;28;20440;-77
2022/09/25 05:27:52;;;;;;;23.63;20.57;;;;;;;;;;5016993;28;20531;-78
2022/09/25 05:30:20;;;;;;;22.77;20.57;;;;;;;;;;5001594;28;20464;-78
2022/09/25 05:32:48;;;;;;;24.20;20.80;;;;;;;;;;5004862;28;20471;-76
2022/09/25 05:35:17;;;;;;;22.80;20.40;;;;;;;;;;4997305;28;20889;-78
2022/09/25 05:37:44;;;;;;;24.33;21.57;;;;;;;;;;4993962;28;20456;-77
2022/09/25 05:40:11;;;;;;;25.30;21.27;;;;;;;;;;4993645;28;20611;-78
2022/09/25 05:42:38;;;;;;;24.43;21.33;;;;;;;;;;4993739;28;20491;-78
2022/09/25 05:45:05;;;;;;;25.27;22.57;;;;;;;;;;4994305;28;20451;-79
2022/09/25 05:47:32;;;;;;;25.97;23.10;;;;;;;;;;4993212;28;20452;-77
2022/09/25 05:49:59;;;;;;;24.93;22.23;;;;;;;;;;4994001;28;20479;-77
2022/09/25 05:52:28;;;;;;;23.50;20.87;;;;;;;;;;4997778;28;20444;-78
2022/09/25 05:54:55;;;;;;;22.53;20.13;;;;;;;;;;5007182;28;20514;-77
2022/09/25 05:57:22;;;;;;;22.53;20.13;;;;;;;;;;5000584;28;20462;-78
2022/09/25 05:59:49;;;;;;;22.20;20.00;;;;;;;;;;4995315;28;20779;-77
2022/09/25 06:02:17;;;;;;;22.67;20.27;;;;;;;;;;4993615;28;20562;-78
2022/09/25 06:04:44;;;;;;;22.50;19.60;;;;;;;;;;4993491;28;20555;-78
2022/09/25 06:07:11;;;;;;;23.27;20.00;;;;;;;;;;4991963;28;20587;-78
2022/09/25 06:09:39;;;;;;;23.33;20.83;;;;;;;;;;4994053;28;20471;-78
2022/09/25 06:12:06;;;;;;;21.23;19.03;;;;;;;;;;4993939;28;20441;-78
2022/09/25 06:14:34;;;;;;;21.40;19.20;;;;;;;;;;4991819;28;20459;-78
2022/09/25 06:17:01;;;;;;;22.87;20.40;;;;;;;;;;4995024;28;20440;-77
2022/09/25 06:19:28;;;;;;;25.30;19.93;;;;;;;;;;4995795;28;20454;-78
2022/09/25 06:21:56;;;;;;;25.77;19.43;;;;;;;;;;4995622;28;20584;-78
2022/09/25 06:24:23;;;;;;;21.57;19.10;;;;;;;;;;4994336;28;20452;-78
2022/09/25 06:26:51;;;;;;;21.30;19.20;;;;;;;;;;4993680;28;21117;-78
2022/09/25 06:29:18;;;;;;;21.20;19.00;;;;;;;;;;4993260;28;20498;-77
2022/09/25 06:31:45;;;;;;;20.40;18.20;;;;;;;;;;4994070;28;20448;-78
2022/09/25 06:34:13;;;;;;;23.33;20.83;;;;;;;;;;4994067;28;20498;-78
2022/09/25 06:36:40;;;;;;;22.07;18.70;;;;;;;;;;4995128;28;20456;-79
2022/09/25 06:39:07;;;;;;;21.07;18.93;;;;;;;;;;4995195;28;20472;-79
2022/09/25 06:41:35;;;;;;;22.33;19.07;;;;;;;;;;4995370;28;20507;-79
2022/09/25 06:44:04;;;;;;;19.87;17.87;;;;;;;;;;4992551;28;20488;-80
2022/09/25 06:46:31;;;;;;;20.73;18.20;;;;;;;;;;4994657;28;20449;-78
2022/09/25 06:48:58;;;;;;;20.20;18.10;;;;;;;;;;4994721;28;20548;-80
2022/09/25 06:51:31;;;;;;;18.77;16.93;;;;;;;;;;4993504;28;20525;-78
2022/09/25 06:53:58;;;;;;;19.70;17.80;;;;;;;;;;4993473;28;20591;-77
2022/09/25 06:56:25;;;;;;;18.63;16.73;;;;;;;;;;4993576;28;20456;-78
2022/09/25 06:58:52;;;;;;;20.60;17.40;;;;;;;;;;4993156;28;20463;-77
2022/09/25 07:01:21;;;;;;;19.23;17.30;;;;;;;;;;4994430;28;20444;-79
2022/09/25 07:03:47;;;;;;;19.63;17.60;;;;;;;;;;4992880;28;20460;-79
2022/09/25 07:06:15;;;;;;;18.63;16.70;;;;;;;;;;4994283;28;20525;-78
2022/09/25 07:08:43;;;;;;;17.97;16.27;;;;;;;;;;4992951;28;20523;-79
2022/09/25 07:11:12;;;;;;;18.53;16.63;;;;;;;;;;4993190;28;21008;-80
2022/09/25 07:13:39;;;;;;;19.60;17.50;;;;;;;;;;4992898;28;20456;-78
2022/09/25 07:16:07;;;;;;;19.30;17.20;;;;;;;;;;4992632;28;20452;-78
2022/09/25 07:18:36;;;;;;;17.00;15.30;;;;;;;;;;4993997;28;20480;-81
2022/09/25 07:21:04;;;;;;;19.60;17.27;;;;;;;;;;4993539;28;20448;-78
2022/09/25 07:23:32;;;;;;;17.57;15.77;;;;;;;;;;4992420;28;20476;-78
2022/09/25 07:26:04;;;;;;;17.67;15.87;;;;;;;;;;4993260;28;20539;-78
2022/09/25 07:28:31;;;;;;;18.97;17.00;;;;;;;;;;4994410;28;20473;-79
2022/09/25 07:30:58;;;;;;;18.90;16.93;;;;;;;;;;4993442;28;20449;-78
2022/09/25 07:33:25;;;;;;;18.30;16.20;;;;;;;;;;4992047;28;20459;-77
2022/09/25 07:35:54;;;;;;;17.63;15.83;;;;;;;;;;4992817;28;20494;-79
2022/09/25 07:38:21;;;;;;;16.27;14.63;;;;;;;;;;4993597;28;20505;-80
2022/09/25 07:40:48;;;;;;;16.40;14.80;;;;;;;;;;4993565;28;20453;-80
2022/09/25 07:43:15;;;;;;;15.00;13.50;;;;;;;;;;4992333;28;21068;-77
2022/09/25 07:45:52;;;;;;;16.93;14.93;;;;;;;;;;4992904;28;20448;-78
2022/09/25 07:48:20;;;;;;;15.60;14.20;;;;;;;;;;4992649;28;20536;-79
2022/09/25 07:50:48;;;;;;;17.27;15.50;;;;;;;;;;4993415;28;20452;-79
2022/09/25 07:53:18;;;;;;;16.20;14.53;;;;;;;;;;4992950;28;20460;-78
2022/09/25 07:55:45;;;;;;;15.90;14.50;;;;;;;;;;4986736;28;20555;-78
2022/09/25 07:58:12;;;;;;;16.93;15.13;;;;;;;;;;4991363;28;20542;-78
2022/09/25 08:00:39;;;;;;;15.87;14.27;;;;;;;;;;4991985;28;20433;-77
2022/09/25 08:03:07;;;;;;;16.13;14.53;;;;;;;;;;4992051;28;20914;-78
2022/09/25 08:05:34;;;;;;;15.57;14.07;;;;;;;;;;4994231;28;20503;-78
2022/09/25 08:08:01;;;;;;;15.47;14.07;;;;;;;;;;4992082;28;20948;-78
2022/09/25 08:10:29;;;;;;;16.27;14.67;;;;;;;;;;4992548;28;20944;-77
2022/09/25 08:12:56;;;;;;;14.67;13.20;;;;;;;;;;4992752;28;20796;-78
2022/09/25 08:15:24;;;;;;;14.83;13.53;;;;;;;;;;4993765;28;20436;-78
2022/09/25 08:17:51;;;;;;;15.23;13.73;;;;;;;;;;4994308;28;21189;-79
2022/09/25 08:20:19;;;;;;;13.70;12.50;;;;;;;;;;4993608;28;20487;-77
2022/09/25 08:22:46;;;;;;;14.93;12.90;;;;;;;;;;4993676;28;20569;-78
2022/09/25 08:25:13;;;;;;;14.13;12.83;;;;;;;;;;4994062;28;20443;-79
2022/09/25 08:27:42;;;;;;;14.20;12.80;;;;;;;;;;4994258;28;20526;-78
2022/09/25 08:30:10;;;;;;;16.47;14.87;;;;;;;;;;4992960;28;20485;-77
2022/09/25 08:32:38;;;;;;;14.57;13.20;;;;;;;;;;4992225;28;20455;-80
2022/09/25 08:35:05;;;;;;;15.60;13.90;;;;;;;;;;4993258;28;20464;-79
2022/09/25 08:37:32;;;;;;;14.70;13.20;;;;;;;;;;4995046;28;20455;-79
2022/09/25 08:39:59;;;;;;;15.93;14.37;;;;;;;;;;4993950;28;20475;-78
2022/09/25 08:42:29;;;;;;;16.67;15.07;;;;;;;;;;4999341;28;20522;-79
2022/09/25 08:50:28;;;;;;;16.47;14.70;;;;;;;;;;4995046;28;21073;-79
2022/09/25 08:53:04;;;;;;;14.40;13.10;;;;;;;;;;5000418;28;20518;-77
2022/09/25 08:58:14;;;;;;;15.70;14.20;;;;;;;;;;5001752;28;20523;-78
2022/09/25 09:00:44;;;;;;;15.50;14.10;;;;;;;;;;5000522;28;20447;-78
2022/09/25 09:03:11;;;;;;;15.87;14.47;;;;;;;;;;4997816;28;20556;-77
2022/09/25 09:05:40;;;;;;;15.50;14.10;;;;;;;;;;4998475;28;20443;-79
2022/09/25 09:08:08;;;;;;;16.53;15.03;;;;;;;;;;5000400;28;20471;-78
2022/09/25 09:10:38;;;;;;;13.97;12.57;;;;;;;;;;4994782;28;20507;-77
2022/09/25 09:13:10;;;;;;;14.60;13.20;;;;;;;;;;4994665;28;20551;-79
2022/09/25 09:15:39;;;;;;;15.07;13.67;;;;;;;;;;4993327;28;20455;-77
2022/09/25 09:18:15;;;;;;;15.13;13.63;;;;;;;;;;4995068;28;20519;-77
2022/09/25 09:20:44;;;;;;;15.07;13.67;;;;;;;;;;4986278;28;20471;-77
2022/09/25 09:23:16;;;;;;;13.40;12.27;;;;;;;;;;4997976;28;20554;-77
2022/09/25 09:25:47;;;;;;;12.60;11.50;;;;;;;;;;4999227;28;20448;-78
2022/09/25 09:28:24;;;;;;;13.00;11.70;;;;;;;;;;4999422;28;20428;-77
2022/09/25 09:30:56;;;;;;;14.53;13.13;;;;;;;;;;4998505;28;20908;-76
2022/09/25 09:33:33;;;;;;;12.97;11.80;;;;;;;;;;4997429;28;20451;-77
2022/09/25 09:36:05;;;;;;;12.60;11.50;;;;;;;;;;4998258;28;20521;-76
2022/09/25 09:38:38;;;;;;;11.43;10.43;;;;;;;;;;4998848;28;20460;-77
2022/09/25 09:41:11;;;;;;;13.70;9.83;;;;;;;;;;4999017;28;20867;-78
2022/09/25 09:43:49;;;;;;;10.40;9.43;;;;;;;;;;4998116;28;20480;-78
2022/09/25 09:46:21;;;;;;;9.37;8.57;;;;;;;;;;4998506;28;20900;-77
2022/09/25 09:48:55;;;;;;;9.80;8.80;;;;;;;;;;4996502;28;20471;-78
2022/09/25 09:51:24;;;;;;;13.80;9.67;;;;;;;;;;4996141;28;20432;-77
2022/09/25 09:53:52;;;;;;;10.53;9.63;;;;;;;;;;4996405;28;20437;-77
2022/09/25 09:56:21;;;;;;;11.37;10.37;;;;;;;;;;4995688;28;20464;-76
2022/09/25 09:58:50;;;;;;;10.80;9.90;;;;;;;;;;4997035;28;20467;-79
2022/09/25 10:01:18;;;;;;;10.03;9.23;;;;;;;;;;4995716;28;20982;-77
2022/09/25 10:03:47;;;;;;;11.43;10.30;;;;;;;;;;4994644;28;20534;-78
2022/09/25 10:06:17;;;;;;;10.90;10.00;;;;;;;;;;4994747;28;20908;-78
2022/09/25 10:08:44;;;;;;;10.63;9.73;;;;;;;;;;4994778;28;20468;-75
2022/09/25 10:11:15;;;;;;;12.23;10.10;;;;;;;;;;4994548;28;20452;-77
2022/09/25 10:13:42;;;;;;;12.37;11.20;;;;;;;;;;4994498;28;20464;-77
2022/09/25 10:16:11;;;;;;;12.20;11.10;;;;;;;;;;4997915;28;20498;-78
2022/09/25 10:18:40;;;;;;;11.67;10.60;;;;;;;;;;4995439;28;20467;-77
2022/09/25 10:21:10;;;;;;;11.47;10.47;;;;;;;;;;5014744;28;20993;-77
2022/09/25 10:23:41;;;;;;;11.40;10.40;;;;;;;;;;5013421;28;20475;-76
2022/09/25 10:26:23;;;;;;;13.90;10.80;;;;;;;;;;5014506;28;20955;-79
2022/09/25 10:28:50;;;;;;;11.70;10.63;;;;;;;;;;5011833;28;20877;-77
2022/09/25 10:31:18;;;;;;;11.93;10.83;;;;;;;;;;5014082;28;20443;-77
2022/09/25 10:33:58;;;;;;;11.63;10.63;;;;;;;;;;5014853;28;20442;-77
2022/09/25 10:36:31;;;;;;;10.90;10.00;;;;;;;;;;5015948;28;21110;-77
2022/09/25 10:38:59;;;;;;;11.90;10.70;;;;;;;;;;5004394;28;20503;-77
2022/09/25 10:41:26;;;;;;;11.93;10.80;;;;;;;;;;4991653;28;20707;-77
2022/09/25 10:43:54;;;;;;;12.20;10.97;;;;;;;;;;4995346;28;20484;-77
2022/09/25 10:52:04;;;;;;;12.07;10.90;;;;;;;;;;4997163;28;20915;-76
2022/09/25 10:54:33;;;;;;;12.53;11.50;;;;;;;;;;5002484;28;20420;-77
2022/09/25 10:57:00;;;;;;;12.43;11.40;;;;;;;;;;5012597;28;20412;-78
2022/09/25 10:59:28;;;;;;;13.50;12.23;;;;;;;;;;5011999;28;20456;-77
2022/09/25 11:01:55;;;;;;;14.33;13.10;;;;;;;;;;5016641;28;20425;-77
2022/09/25 11:04:24;;;;;;;15.77;14.37;;;;;;;;;;5017803;28;20515;-76
2022/09/25 11:06:52;;;;;;;17.33;15.63;;;;;;;;;;5018075;28;20456;-77
2022/09/25 11:09:23;;;;;;;16.90;15.10;;;;;;;;;;5009511;28;20507;-78
2022/09/25 11:11:53;;;;;;;19.13;17.37;;;;;;;;;;5016811;28;20429;-76
2022/09/25 11:14:22;;;;;;;22.40;17.17;;;;;;;;;;5017313;28;20424;-77
2022/09/25 11:16:51;;;;;;;18.60;17.00;;;;;;;;;;5017457;28;20465;-75
2022/09/25 11:19:21;;;;;;;19.60;17.70;;;;;;;;;;5017784;28;20459;-77
2022/09/25 11:21:51;;;;;;;19.73;17.83;;;;;;;;;;5017704;28;20460;-76
2022/09/25 11:24:22;;;;;;;20.13;18.17;;;;;;;;;;5017323;28;20519;-76
2022/09/25 11:26:52;;;;;;;19.30;17.40;;;;;;;;;;5017003;28;20421;-76
2022/09/25 11:29:23;;;;;;;20.33;18.37;;;;;;;;;;5017208;28;20502;-77
2022/09/25 11:31:52;;;;;;;19.30;17.40;;;;;;;;;;5017263;28;20487;-77
2022/09/25 11:34:24;;;;;;;19.90;18.00;;;;;;;;;;5015931;28;20435;-76
2022/09/25 11:36:53;;;;;;;18.67;16.77;;;;;;;;;;5017510;28;20444;-77
2022/09/25 11:42:14;;;;;;;20.03;18.27;;;;;;;;;;5016296;28;20757;-76
2022/09/25 11:44:53;;;;;;;20.57;18.67;;;;;;;;;;5007891;28;20488;-77
2022/09/25 11:47:27;;;;;;;20.13;18.13;;;;;;;;;;5015225;28;20444;-76
2022/09/25 11:49:57;;;;;;;20.73;18.00;;;;;;;;;;5010343;28;20477;-76
2022/09/25 11:52:31;;;;;;;20.70;18.70;;;;;;;;;;5010192;28;20465;-77
2022/09/25 11:55:17;;;;;;;21.40;19.47;;;;;;;;;;5014341;28;20456;-77
2022/09/25 11:57:49;;;;;;;21.53;17.90;;;;;;;;;;4994188;28;20703;-77
2022/09/25 12:00:20;;;;;;;20.60;18.70;;;;;;;;;;4994211;28;20548;-77
2022/09/25 12:02:54;;;;;;;18.47;16.87;;;;;;;;;;4996055;28;20456;-76
2022/09/25 12:05:34;;;;;;;20.07;18.07;;;;;;;;;;4996773;28;20433;-76
2022/09/25 12:08:07;;;;;;;20.63;18.53;;;;;;;;;;4996671;28;20437;-76
2022/09/25 12:10:39;;;;;;;20.63;18.73;;;;;;;;;;4996687;28;20465;-76
2022/09/25 12:13:11;;;;;;;19.90;18.07;;;;;;;;;;4995223;28;20535;-76
2022/09/25 12:15:46;;;;;;;21.17;19.07;;;;;;;;;;4996777;28;20657;-76
2022/09/25 12:18:17;;;;;;;19.23;17.27;;;;;;;;;;4996625;28;20529;-76
2022/09/25 12:20:49;;;;;;;19.97;18.03;;;;;;;;;;4996562;28;20437;-77
2022/09/25 12:23:21;;;;;;;19.80;17.90;;;;;;;;;;4996515;28;20469;-76
2022/09/25 12:25:58;;;;;;;21.63;18.83;;;;;;;;;;5014945;28;20505;-77
2022/09/25 12:28:30;;;;;;;19.33;17.53;;;;;;;;;;5004721;28;20460;-77
2022/09/25 12:31:04;;;;;;;19.80;17.70;;;;;;;;;;5008824;28;20531;-77
2022/09/25 12:33:34;;;;;;;19.33;17.53;;;;;;;;;;5008811;28;20444;-75
2022/09/25 12:36:07;;;;;;;19.47;17.57;;;;;;;;;;5004798;28;20444;-75
2022/09/25 12:38:37;;;;;;;18.70;17.10;;;;;;;;;;5003448;28;20460;-76
2022/09/25 12:41:09;;;;;;;18.03;15.43;;;;;;;;;;5010838;28;20427;-77
2022/09/25 12:43:40;;;;;;;17.47;15.77;;;;;;;;;;5002882;28;20511;-76
2022/09/25 12:46:10;;;;;;;18.40;16.70;;;;;;;;;;5006420;28;20464;-75
2022/09/25 12:48:42;;;;;;;17.30;15.57;;;;;;;;;;5014956;28;20460;-75
2022/09/25 12:51:12;;;;;;;15.97;14.43;;;;;;;;;;5015180;28;20464;-76
2022/09/25 12:53:42;;;;;;;19.40;16.37;;;;;;;;;;5014539;28;20444;-75
2022/09/25 12:56:13;;;;;;;16.47;14.97;;;;;;;;;;5015013;28;20432;-76
2022/09/25 12:58:45;;;;;;;14.80;13.60;;;;;;;;;;5015078;28;20460;-75
2022/09/25 13:01:17;;;;;;;15.70;14.23;;;;;;;;;;5014842;28;20432;-74
2022/09/25 13:03:48;;;;;;;16.10;14.50;;;;;;;;;;5014602;28;20486;-75
2022/09/25 13:06:17;;;;;;;16.07;14.57;;;;;;;;;;5015287;28;20628;-76
2022/09/25 13:08:48;;;;;;;14.30;13.03;;;;;;;;;;5014973;28;20440;-76
2022/09/25 13:11:19;;;;;;;12.90;11.70;;;;;;;;;;5015214;28;20424;-76
2022/09/25 13:13:47;;;;;;;14.10;12.90;;;;;;;;;;5006577;28;20449;-76
2022/09/25 13:16:16;;;;;;;12.23;11.23;;;;;;;;;;5010730;28;20485;-75
2022/09/25 13:18:48;;;;;;;14.70;13.40;;;;;;;;;;5014004;28;20535;-75
2022/09/25 13:21:25;;;;;;;12.53;11.23;;;;;;;;;;5011496;28;20463;-78
2022/09/25 13:23:53;;;;;;;12.10;11.10;;;;;;;;;;5015793;28;20542;-75
2022/09/25 13:26:23;;;;;;;13.00;12.00;;;;;;;;;;5018851;28;20464;-77
2022/09/25 13:28:52;;;;;;;12.57;11.47;;;;;;;;;;5018333;28;20460;-76
2022/09/25 13:31:25;;;;;;;11.50;10.50;;;;;;;;;;5017315;28;20431;-76
2022/09/25 13:33:54;;;;;;;11.70;10.60;;;;;;;;;;5009919;28;20500;-75
2022/09/25 13:36:35;;;;;;;13.47;12.10;;;;;;;;;;5005641;28;20441;-77
2022/09/25 13:41:49;;;;;;;13.07;11.97;;;;;;;;;;5000100;28;20448;-75
2022/09/25 13:44:39;;;;;;;13.27;12.07;;;;;;;;;;4999722;28;20464;-77
2022/09/25 13:47:28;;;;;;;12.40;11.47;;;;;;;;;;5000740;28;20440;-77
2022/09/25 13:50:06;;;;;;;13.07;11.37;;;;;;;;;;5000421;28;20477;-75
2022/09/25 13:53:15;;;;;;;13.07;11.77;;;;;;;;;;4999543;28;20441;-75
2022/09/25 13:55:41;;;;;;;12.17;11.17;;;;;;;;;;4999495;28;20433;-75
2022/09/25 13:58:16;;;;;;;11.87;10.80;;;;;;;;;;4999661;28;20433;-75
2022/09/25 14:00:56;;;;;;;11.00;10.00;;;;;;;;;;4996947;28;20436;-75
2022/09/25 14:03:31;;;;;;;10.80;9.90;;;;;;;;;;4978929;28;20456;-77
2022/09/25 14:06:00;;;;;;;11.23;10.33;;;;;;;;;;4975769;28;20480;-78
2022/09/25 14:08:29;;;;;;;11.53;10.50;;;;;;;;;;4978308;28;20477;-76
2022/09/25 14:10:57;;;;;;;11.23;10.23;;;;;;;;;;4974677;28;20483;-77
2022/09/25 14:13:25;;;;;;;12.00;10.17;;;;;;;;;;4990864;28;20448;-77
2022/09/25 14:15:55;;;;;;;9.10;8.40;;;;;;;;;;4992680;28;20452;-77
2022/09/25 14:18:24;;;;;;;10.10;9.20;;;;;;;;;;4991469;28;21187;-76
2022/09/25 14:20:53;;;;;;;9.67;8.87;;;;;;;;;;4993788;28;20444;-76
2022/09/25 14:23:25;;;;;;;10.30;9.30;;;;;;;;;;4991172;28;20476;-77
2022/09/25 14:25:59;;;;;;;10.23;9.33;;;;;;;;;;4992460;28;20619;-79
2022/09/25 14:28:27;;;;;;;9.27;8.33;;;;;;;;;;4991013;28;20851;-76
2022/09/25 14:31:01;;;;;;;9.40;8.60;;;;;;;;;;4991493;28;20444;-77
2022/09/25 14:33:37;;;;;;;9.87;9.07;;;;;;;;;;4990106;28;20487;-78
2022/09/25 14:36:08;;;;;;;9.50;8.70;;;;;;;;;;4990852;28;20433;-76
2022/09/25 14:38:53;;;;;;;9.73;8.93;;;;;;;;;;4991531;28;20468;-78
2022/09/25 14:41:32;;;;;;;10.70;9.70;;;;;;;;;;4978938;28;20955;-78
2022/09/25 14:44:08;;;;;;;10.63;9.60;;;;;;;;;;4990046;28;20813;-78
2022/09/25 14:46:36;;;;;;;10.40;9.47;;;;;;;;;;4990173;28;20447;-77
2022/09/25 14:49:07;;;;;;;9.27;8.47;;;;;;;;;;4990796;28;20476;-77
2022/09/25 14:51:39;;;;;;;8.63;7.93;;;;;;;;;;4991397;28;20456;-78
2022/09/25 14:54:06;;;;;;;7.43;6.83;;;;;;;;;;4989925;28;20437;-76
2022/09/25 14:56:36;;;;;;;8.53;7.73;;;;;;;;;;4990370;28;20526;-77
2022/09/25 14:59:09;;;;;;;8.10;7.50;;;;;;;;;;4990552;28;20498;-76
2022/09/25 15:01:36;;;;;;;7.87;7.27;;;;;;;;;;4989792;28;20448;-76